Terminal Aerodrome Forecast
Issued by NWS

Home | Current Version | Previous Version | Text Only | Print | Product List | Glossary On
Versions: 1 2 3 4 5 6 7 8 9 10 11 12 13
000
FTUS41 KCLE 262331
TAFFDY
TAF
KFDY 262331Z 2700/2724 26008KT P6SM VCSH SCT050 BKN090
      TEMPO 2700/2702 VRB12G25KT 4SM -SHRA BKN035
     FM270200 25008KT P6SM SCT050 BKN110
      TEMPO 2706/2709 SCT008 BKN015
     FM271300 30006KT P6SM FEW035 SCT250
     FM272000 27010KT P6SM SCT050=

USA.gov is the U.S. government's official web portal to all federal, state and local government web resources and services.